sensor_id;sensor_type;location;lat;lon;timestamp;P1;durP1;ratioP1;P2;durP2;ratioP2
7359;SDS011;3720;48.274;7.796;2023-10-13T00:00:37;7.38;;;3.70;;
7359;SDS011;3720;48.274;7.796;2023-10-13T00:03:10;9.80;;;3.35;;
7359;SDS011;3720;48.274;7.796;2023-10-13T00:05:47;10.80;;;3.90;;
7359;SDS011;3720;48.274;7.796;2023-10-13T00:10:54;11.25;;;3.75;;
7359;SDS011;3720;48.274;7.796;2023-10-13T00:13:30;8.40;;;4.00;;
7359;SDS011;3720;48.274;7.796;2023-10-13T00:16:11;10.93;;;3.65;;
7359;SDS011;3720;48.274;7.796;2023-10-13T00:18:51;8.90;;;3.75;;
7359;SDS011;3720;48.274;7.796;2023-10-13T00:21:25;10.35;;;3.95;;
7359;SDS011;3720;48.274;7.796;2023-10-13T00:24:02;10.38;;;3.90;;
7359;SDS011;3720;48.274;7.796;2023-10-13T00:26:42;6.68;;;3.47;;
7359;SDS011;3720;48.274;7.796;2023-10-13T00:29:14;9.73;;;3.53;;
7359;SDS011;3720;48.274;7.796;2023-10-13T00:31:46;10.95;;;3.40;;
7359;SDS011;3720;48.274;7.796;2023-10-13T00:34:19;14.00;;;3.30;;
7359;SDS011;3720;48.274;7.796;2023-10-13T00:39:46;10.88;;;3.53;;
7359;SDS011;3720;48.274;7.796;2023-10-13T00:42:18;10.48;;;3.70;;
7359;SDS011;3720;48.274;7.796;2023-10-13T00:44:50;9.82;;;3.58;;
7359;SDS011;3720;48.274;7.796;2023-10-13T00:47:24;10.00;;;3.70;;
7359;SDS011;3720;48.274;7.796;2023-10-13T00:50:19;8.73;;;3.58;;
7359;SDS011;3720;48.274;7.796;2023-10-13T00:52:52;6.97;;;3.50;;
7359;SDS011;3720;48.274;7.796;2023-10-13T00:55:25;9.00;;;3.67;;
7359;SDS011;3720;48.274;7.796;2023-10-13T00:57:57;7.47;;;3.15;;
7359;SDS011;3720;48.274;7.796;2023-10-13T01:00:33;7.05;;;3.60;;
7359;SDS011;3720;48.274;7.796;2023-10-13T01:03:16;6.78;;;3.20;;
7359;SDS011;3720;48.274;7.796;2023-10-13T01:05:55;7.45;;;3.50;;
7359;SDS011;3720;48.274;7.796;2023-10-13T01:08:33;8.43;;;3.53;;
7359;SDS011;3720;48.274;7.796;2023-10-13T01:11:08;12.38;;;3.72;;
7359;SDS011;3720;48.274;7.796;2023-10-13T01:13:40;9.02;;;3.67;;
7359;SDS011;3720;48.274;7.796;2023-10-13T01:16:12;11.82;;;3.70;;
7359;SDS011;3720;48.274;7.796;2023-10-13T01:18:44;10.13;;;4.10;;
7359;SDS011;3720;48.274;7.796;2023-10-13T01:21:18;10.43;;;3.75;;
7359;SDS011;3720;48.274;7.796;2023-10-13T01:23:52;9.80;;;4.10;;
7359;SDS011;3720;48.274;7.796;2023-10-13T01:26:23;10.13;;;4.22;;
7359;SDS011;3720;48.274;7.796;2023-10-13T01:28:56;10.98;;;3.80;;
7359;SDS011;3720;48.274;7.796;2023-10-13T01:31:28;9.82;;;3.60;;
7359;SDS011;3720;48.274;7.796;2023-10-13T01:34:01;8.13;;;3.80;;
7359;SDS011;3720;48.274;7.796;2023-10-13T01:36:31;7.05;;;3.78;;
7359;SDS011;3720;48.274;7.796;2023-10-13T01:39:08;10.00;;;3.85;;
7359;SDS011;3720;48.274;7.796;2023-10-13T01:41:41;10.02;;;4.13;;
7359;SDS011;3720;48.274;7.796;2023-10-13T01:44:13;13.80;;;4.15;;
7359;SDS011;3720;48.274;7.796;2023-10-13T01:46:47;11.05;;;4.05;;
7359;SDS011;3720;48.274;7.796;2023-10-13T01:49:19;8.02;;;3.47;;
7359;SDS011;3720;48.274;7.796;2023-10-13T01:51:51;8.10;;;3.55;;
7359;SDS011;3720;48.274;7.796;2023-10-13T01:54:25;6.80;;;3.63;;
7359;SDS011;3720;48.274;7.796;2023-10-13T01:56:56;7.07;;;3.78;;
7359;SDS011;3720;48.274;7.796;2023-10-13T01:59:29;8.88;;;3.92;;
7359;SDS011;3720;48.274;7.796;2023-10-13T02:02:00;10.68;;;3.85;;
7359;SDS011;3720;48.274;7.796;2023-10-13T02:04:32;9.48;;;3.90;;
7359;SDS011;3720;48.274;7.796;2023-10-13T02:07:03;11.07;;;4.18;;
7359;SDS011;3720;48.274;7.796;2023-10-13T02:09:39;8.38;;;4.03;;
7359;SDS011;3720;48.274;7.796;2023-10-13T02:12:10;7.20;;;3.80;;
7359;SDS011;3720;48.274;7.796;2023-10-13T02:14:42;8.82;;;4.03;;
7359;SDS011;3720;48.274;7.796;2023-10-13T02:17:14;9.13;;;3.50;;
7359;SDS011;3720;48.274;7.796;2023-10-13T02:19:51;9.32;;;3.78;;
7359;SDS011;3720;48.274;7.796;2023-10-13T02:22:24;6.25;;;3.40;;
7359;SDS011;3720;48.274;7.796;2023-10-13T02:25:02;6.47;;;3.95;;
7359;SDS011;3720;48.274;7.796;2023-10-13T02:27:35;7.43;;;3.70;;
7359;SDS011;3720;48.274;7.796;2023-10-13T02:30:11;9.57;;;3.83;;
7359;SDS011;3720;48.274;7.796;2023-10-13T02:32:44;10.27;;;4.05;;
7359;SDS011;3720;48.274;7.796;2023-10-13T02:35:18;5.03;;;3.22;;
7359;SDS011;3720;48.274;7.796;2023-10-13T02:37:59;8.35;;;3.55;;
7359;SDS011;3720;48.274;7.796;2023-10-13T02:40:42;6.00;;;3.60;;
7359;SDS011;3720;48.274;7.796;2023-10-13T02:43:14;9.55;;;4.07;;
7359;SDS011;3720;48.274;7.796;2023-10-13T02:45:51;10.23;;;3.70;;
7359;SDS011;3720;48.274;7.796;2023-10-13T02:48:28;7.03;;;3.55;;
7359;SDS011;3720;48.274;7.796;2023-10-13T02:51:01;8.70;;;3.78;;
7359;SDS011;3720;48.274;7.796;2023-10-13T02:53:36;7.65;;;3.90;;
7359;SDS011;3720;48.274;7.796;2023-10-13T02:56:09;10.68;;;3.80;;
7359;SDS011;3720;48.274;7.796;2023-10-13T02:58:43;7.47;;;3.80;;
7359;SDS011;3720;48.274;7.796;2023-10-13T03:01:15;6.75;;;3.72;;
7359;SDS011;3720;48.274;7.796;2023-10-13T03:03:49;6.53;;;3.45;;
7359;SDS011;3720;48.274;7.796;2023-10-13T03:06:24;8.73;;;4.03;;
7359;SDS011;3720;48.274;7.796;2023-10-13T03:09:02;6.70;;;3.80;;
7359;SDS011;3720;48.274;7.796;2023-10-13T03:11:46;8.80;;;3.80;;
7359;SDS011;3720;48.274;7.796;2023-10-13T03:14:19;6.68;;;3.67;;
7359;SDS011;3720;48.274;7.796;2023-10-13T03:17:01;7.13;;;3.80;;
7359;SDS011;3720;48.274;7.796;2023-10-13T03:19:34;9.77;;;3.72;;
7359;SDS011;3720;48.274;7.796;2023-10-13T03:22:08;7.88;;;3.90;;
7359;SDS011;3720;48.274;7.796;2023-10-13T03:24:41;6.50;;;3.90;;
7359;SDS011;3720;48.274;7.796;2023-10-13T03:27:18;7.43;;;4.00;;
7359;SDS011;3720;48.274;7.796;2023-10-13T03:29:53;7.53;;;3.97;;
7359;SDS011;3720;48.274;7.796;2023-10-13T03:32:25;7.53;;;3.95;;
7359;SDS011;3720;48.274;7.796;2023-10-13T03:34:59;7.35;;;3.95;;
7359;SDS011;3720;48.274;7.796;2023-10-13T03:37:41;9.30;;;3.92;;
7359;SDS011;3720;48.274;7.796;2023-10-13T03:40:13;10.57;;;4.05;;
7359;SDS011;3720;48.274;7.796;2023-10-13T03:43:00;8.15;;;4.32;;
7359;SDS011;3720;48.274;7.796;2023-10-13T03:45:35;8.20;;;4.20;;
7359;SDS011;3720;48.274;7.796;2023-10-13T03:48:09;6.88;;;4.03;;
7359;SDS011;3720;48.274;7.796;2023-10-13T03:50:58;6.57;;;3.83;;
7359;SDS011;3720;48.274;7.796;2023-10-13T03:53:37;6.68;;;3.70;;
7359;SDS011;3720;48.274;7.796;2023-10-13T03:56:23;7.68;;;4.13;;
7359;SDS011;3720;48.274;7.796;2023-10-13T03:58:59;9.32;;;4.30;;
7359;SDS011;3720;48.274;7.796;2023-10-13T04:01:36;8.32;;;3.95;;
7359;SDS011;3720;48.274;7.796;2023-10-13T04:04:16;9.02;;;4.22;;
7359;SDS011;3720;48.274;7.796;2023-10-13T04:07:04;8.13;;;3.85;;
7359;SDS011;3720;48.274;7.796;2023-10-13T04:10:09;9.93;;;4.10;;
7359;SDS011;3720;48.274;7.796;2023-10-13T04:12:58;7.82;;;4.43;;
7359;SDS011;3720;48.274;7.796;2023-10-13T04:15:57;9.00;;;4.43;;
7359;SDS011;3720;48.274;7.796;2023-10-13T04:19:04;7.97;;;4.03;;
7359;SDS011;3720;48.274;7.796;2023-10-13T04:21:41;11.73;;;4.70;;
7359;SDS011;3720;48.274;7.796;2023-10-13T04:24:27;12.80;;;4.38;;
7359;SDS011;3720;48.274;7.796;2023-10-13T04:27:09;6.25;;;3.90;;
7359;SDS011;3720;48.274;7.796;2023-10-13T04:29:59;8.25;;;4.40;;
7359;SDS011;3720;48.274;7.796;2023-10-13T04:32:43;6.40;;;3.55;;
7359;SDS011;3720;48.274;7.796;2023-10-13T04:35:16;7.95;;;3.90;;
7359;SDS011;3720;48.274;7.796;2023-10-13T04:37:49;7.65;;;4.35;;
7359;SDS011;3720;48.274;7.796;2023-10-13T04:40:30;7.32;;;3.70;;
7359;SDS011;3720;48.274;7.796;2023-10-13T04:43:05;6.45;;;3.97;;
7359;SDS011;3720;48.274;7.796;2023-10-13T04:45:58;8.70;;;4.40;;
7359;SDS011;3720;48.274;7.796;2023-10-13T04:48:45;6.93;;;4.00;;
7359;SDS011;3720;48.274;7.796;2023-10-13T04:51:17;8.23;;;4.00;;
7359;SDS011;3720;48.274;7.796;2023-10-13T04:54:04;6.97;;;4.23;;
7359;SDS011;3720;48.274;7.796;2023-10-13T04:56:42;7.10;;;3.97;;
7359;SDS011;3720;48.274;7.796;2023-10-13T04:59:31;10.65;;;4.70;;
7359;SDS011;3720;48.274;7.796;2023-10-13T05:02:29;11.15;;;4.25;;
7359;SDS011;3720;48.274;7.796;2023-10-13T05:05:34;10.90;;;4.80;;
7359;SDS011;3720;48.274;7.796;2023-10-13T05:08:36;8.82;;;4.32;;
7359;SDS011;3720;48.274;7.796;2023-10-13T05:11:25;11.45;;;4.47;;
7359;SDS011;3720;48.274;7.796;2023-10-13T05:14:20;9.73;;;4.60;;
7359;SDS011;3720;48.274;7.796;2023-10-13T05:17:09;7.78;;;4.10;;
7359;SDS011;3720;48.274;7.796;2023-10-13T05:19:58;7.00;;;4.43;;
7359;SDS011;3720;48.274;7.796;2023-10-13T05:22:54;11.20;;;4.78;;
7359;SDS011;3720;48.274;7.796;2023-10-13T05:25:43;11.38;;;4.32;;
7359;SDS011;3720;48.274;7.796;2023-10-13T05:28:32;11.13;;;4.53;;
7359;SDS011;3720;48.274;7.796;2023-10-13T05:31:21;9.25;;;4.75;;
7359;SDS011;3720;48.274;7.796;2023-10-13T05:34:10;11.85;;;4.43;;
7359;SDS011;3720;48.274;7.796;2023-10-13T05:36:59;9.45;;;4.20;;
7359;SDS011;3720;48.274;7.796;2023-10-13T05:39:50;8.55;;;3.97;;
7359;SDS011;3720;48.274;7.796;2023-10-13T05:42:39;6.40;;;3.95;;
7359;SDS011;3720;48.274;7.796;2023-10-13T05:45:28;8.10;;;4.10;;
7359;SDS011;3720;48.274;7.796;2023-10-13T05:48:31;7.82;;;4.72;;
7359;SDS011;3720;48.274;7.796;2023-10-13T05:51:22;7.93;;;4.20;;
7359;SDS011;3720;48.274;7.796;2023-10-13T05:54:13;14.13;;;4.40;;
7359;SDS011;3720;48.274;7.796;2023-10-13T05:57:04;12.98;;;4.72;;
7359;SDS011;3720;48.274;7.796;2023-10-13T06:00:05;9.35;;;4.18;;
7359;SDS011;3720;48.274;7.796;2023-10-13T06:02:55;12.35;;;4.70;;
7359;SDS011;3720;48.274;7.796;2023-10-13T06:05:44;8.77;;;4.38;;
7359;SDS011;3720;48.274;7.796;2023-10-13T06:08:33;9.80;;;4.47;;
7359;SDS011;3720;48.274;7.796;2023-10-13T06:11:23;8.85;;;4.22;;
7359;SDS011;3720;48.274;7.796;2023-10-13T06:14:13;8.95;;;4.70;;
7359;SDS011;3720;48.274;7.796;2023-10-13T06:17:02;11.73;;;4.03;;
7359;SDS011;3720;48.274;7.796;2023-10-13T06:19:52;7.35;;;4.20;;
7359;SDS011;3720;48.274;7.796;2023-10-13T06:22:41;12.27;;;4.35;;
7359;SDS011;3720;48.274;7.796;2023-10-13T06:25:30;9.43;;;4.45;;
7359;SDS011;3720;48.274;7.796;2023-10-13T06:28:19;7.35;;;4.38;;
7359;SDS011;3720;48.274;7.796;2023-10-13T06:31:10;10.20;;;4.53;;
7359;SDS011;3720;48.274;7.796;2023-10-13T06:33:52;9.48;;;3.85;;
7359;SDS011;3720;48.274;7.796;2023-10-13T06:36:25;12.13;;;4.70;;
7359;SDS011;3720;48.274;7.796;2023-10-13T06:38:57;11.57;;;4.75;;
7359;SDS011;3720;48.274;7.796;2023-10-13T06:42:02;11.48;;;4.70;;
7359;SDS011;3720;48.274;7.796;2023-10-13T06:44:34;11.45;;;4.22;;
7359;SDS011;3720;48.274;7.796;2023-10-13T06:47:11;7.50;;;4.15;;
7359;SDS011;3720;48.274;7.796;2023-10-13T06:49:43;10.73;;;4.95;;
7359;SDS011;3720;48.274;7.796;2023-10-13T06:52:16;10.90;;;4.43;;
7359;SDS011;3720;48.274;7.796;2023-10-13T06:54:49;9.32;;;4.30;;
7359;SDS011;3720;48.274;7.796;2023-10-13T06:57:21;10.43;;;4.30;;
7359;SDS011;3720;48.274;7.796;2023-10-13T06:59:53;10.57;;;4.43;;
7359;SDS011;3720;48.274;7.796;2023-10-13T07:02:27;12.80;;;4.90;;
7359;SDS011;3720;48.274;7.796;2023-10-13T07:05:03;9.07;;;4.25;;
7359;SDS011;3720;48.274;7.796;2023-10-13T07:07:41;9.77;;;4.38;;
7359;SDS011;3720;48.274;7.796;2023-10-13T07:10:14;9.60;;;4.25;;
7359;SDS011;3720;48.274;7.796;2023-10-13T07:12:46;12.05;;;4.35;;
7359;SDS011;3720;48.274;7.796;2023-10-13T07:15:20;9.70;;;4.53;;
7359;SDS011;3720;48.274;7.796;2023-10-13T07:17:59;12.63;;;5.00;;
7359;SDS011;3720;48.274;7.796;2023-10-13T07:20:35;9.38;;;4.60;;
7359;SDS011;3720;48.274;7.796;2023-10-13T07:23:13;9.13;;;4.00;;
7359;SDS011;3720;48.274;7.796;2023-10-13T07:25:53;9.63;;;4.30;;
7359;SDS011;3720;48.274;7.796;2023-10-13T07:28:31;9.77;;;4.32;;
7359;SDS011;3720;48.274;7.796;2023-10-13T07:31:06;8.30;;;4.15;;
7359;SDS011;3720;48.274;7.796;2023-10-13T07:36:16;12.50;;;4.13;;
7359;SDS011;3720;48.274;7.796;2023-10-13T07:38:55;16.20;;;4.72;;
7359;SDS011;3720;48.274;7.796;2023-10-13T07:41:50;10.27;;;4.32;;
7359;SDS011;3720;48.274;7.796;2023-10-13T07:44:33;13.13;;;4.35;;
7359;SDS011;3720;48.274;7.796;2023-10-13T07:47:06;13.02;;;4.30;;
7359;SDS011;3720;48.274;7.796;2023-10-13T07:49:40;9.70;;;4.00;;
7359;SDS011;3720;48.274;7.796;2023-10-13T07:52:12;8.45;;;4.00;;
7359;SDS011;3720;48.274;7.796;2023-10-13T07:55:06;9.40;;;4.03;;
7359;SDS011;3720;48.274;7.796;2023-10-13T07:57:44;10.55;;;4.35;;
7359;SDS011;3720;48.274;7.796;2023-10-13T08:00:24;12.70;;;4.40;;
7359;SDS011;3720;48.274;7.796;2023-10-13T08:02:59;10.93;;;4.22;;
7359;SDS011;3720;48.274;7.796;2023-10-13T08:05:53;11.95;;;4.30;;
7359;SDS011;3720;48.274;7.796;2023-10-13T08:08:34;8.88;;;3.60;;
7359;SDS011;3720;48.274;7.796;2023-10-13T08:11:09;12.43;;;4.50;;
7359;SDS011;3720;48.274;7.796;2023-10-13T08:13:55;13.80;;;4.18;;
7359;SDS011;3720;48.274;7.796;2023-10-13T08:16:29;12.43;;;4.07;;
7359;SDS011;3720;48.274;7.796;2023-10-13T08:19:16;11.02;;;3.75;;
7359;SDS011;3720;48.274;7.796;2023-10-13T08:21:50;11.75;;;3.90;;
7359;SDS011;3720;48.274;7.796;2023-10-13T08:24:22;12.50;;;4.13;;
7359;SDS011;3720;48.274;7.796;2023-10-13T08:26:59;12.35;;;3.92;;
7359;SDS011;3720;48.274;7.796;2023-10-13T08:29:59;12.35;;;4.07;;
7359;SDS011;3720;48.274;7.796;2023-10-13T08:32:54;17.75;;;4.10;;
7359;SDS011;3720;48.274;7.796;2023-10-13T08:35:28;18.23;;;3.90;;
7359;SDS011;3720;48.274;7.796;2023-10-13T08:38:09;11.65;;;3.60;;
7359;SDS011;3720;48.274;7.796;2023-10-13T08:40:47;13.35;;;3.97;;
7359;SDS011;3720;48.274;7.796;2023-10-13T08:43:41;12.30;;;3.65;;
7359;SDS011;3720;48.274;7.796;2023-10-13T08:46:15;13.90;;;3.15;;
7359;SDS011;3720;48.274;7.796;2023-10-13T08:48:59;9.77;;;3.13;;
7359;SDS011;3720;48.274;7.796;2023-10-13T08:51:47;9.45;;;3.20;;
7359;SDS011;3720;48.274;7.796;2023-10-13T08:57:16;16.60;;;2.60;;
7359;SDS011;3720;48.274;7.796;2023-10-13T08:59:50;12.05;;;2.92;;
7359;SDS011;3720;48.274;7.796;2023-10-13T09:02:25;10.15;;;2.60;;
7359;SDS011;3720;48.274;7.796;2023-10-13T09:05:11;8.23;;;2.60;;
7359;SDS011;3720;48.274;7.796;2023-10-13T09:07:57;9.45;;;2.70;;
7359;SDS011;3720;48.274;7.796;2023-10-13T09:10:40;10.45;;;2.95;;
7359;SDS011;3720;48.274;7.796;2023-10-13T09:13:14;8.98;;;2.80;;
7359;SDS011;3720;48.274;7.796;2023-10-13T09:15:50;8.65;;;2.83;;
7359;SDS011;3720;48.274;7.796;2023-10-13T09:18:31;9.70;;;2.65;;
7359;SDS011;3720;48.274;7.796;2023-10-13T09:21:17;11.23;;;2.80;;
7359;SDS011;3720;48.274;7.796;2023-10-13T09:24:13;9.60;;;2.50;;
7359;SDS011;3720;48.274;7.796;2023-10-13T09:26:53;9.95;;;2.75;;
7359;SDS011;3720;48.274;7.796;2023-10-13T09:29:25;10.55;;;2.95;;
7359;SDS011;3720;48.274;7.796;2023-10-13T09:32:00;11.38;;;2.80;;
7359;SDS011;3720;48.274;7.796;2023-10-13T09:34:32;8.60;;;2.90;;
7359;SDS011;3720;48.274;7.796;2023-10-13T09:37:10;12.93;;;3.13;;
7359;SDS011;3720;48.274;7.796;2023-10-13T09:39:45;12.65;;;2.72;;
7359;SDS011;3720;48.274;7.796;2023-10-13T09:42:22;9.70;;;3.00;;
7359;SDS011;3720;48.274;7.796;2023-10-13T09:44:56;13.05;;;3.00;;
7359;SDS011;3720;48.274;7.796;2023-10-13T09:47:34;10.43;;;3.20;;
7359;SDS011;3720;48.274;7.796;2023-10-13T09:50:07;9.52;;;3.10;;
7359;SDS011;3720;48.274;7.796;2023-10-13T09:55:17;11.38;;;3.38;;
7359;SDS011;3720;48.274;7.796;2023-10-13T09:57:58;10.48;;;2.90;;
7359;SDS011;3720;48.274;7.796;2023-10-13T10:00:42;8.52;;;2.60;;
7359;SDS011;3720;48.274;7.796;2023-10-13T10:03:20;13.10;;;3.30;;
7359;SDS011;3720;48.274;7.796;2023-10-13T10:06:09;8.88;;;2.90;;
7359;SDS011;3720;48.274;7.796;2023-10-13T10:08:47;16.25;;;3.72;;
7359;SDS011;3720;48.274;7.796;2023-10-13T10:11:35;9.80;;;3.00;;
7359;SDS011;3720;48.274;7.796;2023-10-13T10:14:28;10.60;;;3.53;;
7359;SDS011;3720;48.274;7.796;2023-10-13T10:17:25;8.38;;;2.92;;
7359;SDS011;3720;48.274;7.796;2023-10-13T10:19:59;8.98;;;2.90;;
7359;SDS011;3720;48.274;7.796;2023-10-13T10:22:36;9.07;;;2.88;;
7359;SDS011;3720;48.274;7.796;2023-10-13T10:25:08;9.57;;;3.08;;
7359;SDS011;3720;48.274;7.796;2023-10-13T10:27:54;11.48;;;3.00;;
7359;SDS011;3720;48.274;7.796;2023-10-13T10:30:29;9.05;;;3.20;;
7359;SDS011;3720;48.274;7.796;2023-10-13T10:33:03;14.47;;;3.50;;
7359;SDS011;3720;48.274;7.796;2023-10-13T10:35:44;10.88;;;3.17;;
7359;SDS011;3720;48.274;7.796;2023-10-13T10:38:17;11.95;;;2.92;;
7359;SDS011;3720;48.274;7.796;2023-10-13T10:41:03;10.02;;;3.17;;
7359;SDS011;3720;48.274;7.796;2023-10-13T10:43:36;10.27;;;3.28;;
7359;SDS011;3720;48.274;7.796;2023-10-13T10:46:17;8.80;;;3.10;;
7359;SDS011;3720;48.274;7.796;2023-10-13T10:48:57;8.95;;;2.90;;
7359;SDS011;3720;48.274;7.796;2023-10-13T10:51:31;9.18;;;3.13;;
7359;SDS011;3720;48.274;7.796;2023-10-13T10:54:04;12.70;;;3.50;;
7359;SDS011;3720;48.274;7.796;2023-10-13T10:56:42;10.75;;;2.92;;
7359;SDS011;3720;48.274;7.796;2023-10-13T10:59:14;10.73;;;3.17;;
7359;SDS011;3720;48.274;7.796;2023-10-13T11:01:50;8.82;;;3.30;;
7359;SDS011;3720;48.274;7.796;2023-10-13T11:04:22;8.93;;;3.10;;
7359;SDS011;3720;48.274;7.796;2023-10-13T11:07:03;10.57;;;3.10;;
7359;SDS011;3720;48.274;7.796;2023-10-13T11:09:36;12.38;;;3.25;;
7359;SDS011;3720;48.274;7.796;2023-10-13T11:12:15;9.77;;;3.28;;
7359;SDS011;3720;48.274;7.796;2023-10-13T11:15:00;12.60;;;3.00;;
7359;SDS011;3720;48.274;7.796;2023-10-13T11:17:36;11.00;;;3.03;;
7359;SDS011;3720;48.274;7.796;2023-10-13T11:20:18;9.98;;;3.28;;
7359;SDS011;3720;48.274;7.796;2023-10-13T11:23:10;7.90;;;3.10;;
7359;SDS011;3720;48.274;7.796;2023-10-13T11:25:42;10.23;;;3.20;;
7359;SDS011;3720;48.274;7.796;2023-10-13T11:28:15;8.07;;;3.15;;
7359;SDS011;3720;48.274;7.796;2023-10-13T11:30:49;10.18;;;3.08;;
7359;SDS011;3720;48.274;7.796;2023-10-13T11:33:22;10.60;;;3.05;;
7359;SDS011;3720;48.274;7.796;2023-10-13T11:35:56;9.65;;;3.40;;
7359;SDS011;3720;48.274;7.796;2023-10-13T11:38:33;6.07;;;3.20;;
7359;SDS011;3720;48.274;7.796;2023-10-13T11:41:13;9.82;;;3.15;;
7359;SDS011;3720;48.274;7.796;2023-10-13T11:43:46;7.15;;;3.28;;
7359;SDS011;3720;48.274;7.796;2023-10-13T11:46:43;9.45;;;3.00;;
7359;SDS011;3720;48.274;7.796;2023-10-13T11:49:27;10.13;;;3.20;;
7359;SDS011;3720;48.274;7.796;2023-10-13T11:52:07;10.18;;;2.85;;
7359;SDS011;3720;48.274;7.796;2023-10-13T11:54:48;10.55;;;3.08;;
7359;SDS011;3720;48.274;7.796;2023-10-13T11:57:19;9.02;;;3.10;;
7359;SDS011;3720;48.274;7.796;2023-10-13T11:59:52;8.55;;;3.20;;
7359;SDS011;3720;48.274;7.796;2023-10-13T12:02:26;8.48;;;3.20;;
7359;SDS011;3720;48.274;7.796;2023-10-13T12:05:16;11.05;;;3.10;;
7359;SDS011;3720;48.274;7.796;2023-10-13T12:07:57;8.95;;;3.42;;
7359;SDS011;3720;48.274;7.796;2023-10-13T12:10:33;12.32;;;3.33;;
7359;SDS011;3720;48.274;7.796;2023-10-13T12:13:19;12.07;;;3.42;;
7359;SDS011;3720;48.274;7.796;2023-10-13T12:15:51;18.55;;;3.55;;
7359;SDS011;3720;48.274;7.796;2023-10-13T12:18:26;6.75;;;2.75;;
7359;SDS011;3720;48.274;7.796;2023-10-13T12:21:02;7.93;;;2.90;;
7359;SDS011;3720;48.274;7.796;2023-10-13T12:23:41;10.57;;;3.40;;
7359;SDS011;3720;48.274;7.796;2023-10-13T12:26:15;8.30;;;3.08;;
7359;SDS011;3720;48.274;7.796;2023-10-13T12:28:50;8.73;;;3.17;;
7359;SDS011;3720;48.274;7.796;2023-10-13T12:31:23;9.40;;;3.30;;
7359;SDS011;3720;48.274;7.796;2023-10-13T12:33:57;5.97;;;2.80;;
7359;SDS011;3720;48.274;7.796;2023-10-13T12:36:37;12.23;;;2.90;;
7359;SDS011;3720;48.274;7.796;2023-10-13T12:39:12;43.50;;;6.20;;
7359;SDS011;3720;48.274;7.796;2023-10-13T12:42:01;9.55;;;2.95;;
7359;SDS011;3720;48.274;7.796;2023-10-13T12:44:50;8.20;;;2.78;;
7359;SDS011;3720;48.274;7.796;2023-10-13T12:47:40;80.97;;;8.88;;
7359;SDS011;3720;48.274;7.796;2023-10-13T12:50:29;8.85;;;2.83;;
7359;SDS011;3720;48.274;7.796;2023-10-13T12:53:15;35.78;;;5.13;;
7359;SDS011;3720;48.274;7.796;2023-10-13T12:55:47;11.32;;;2.97;;
7359;SDS011;3720;48.274;7.796;2023-10-13T12:58:22;9.90;;;3.00;;
7359;SDS011;3720;48.274;7.796;2023-10-13T13:00:59;6.63;;;2.78;;
7359;SDS011;3720;48.274;7.796;2023-10-13T13:03:36;10.63;;;3.33;;
7359;SDS011;3720;48.274;7.796;2023-10-13T13:06:17;10.05;;;2.78;;
7359;SDS011;3720;48.274;7.796;2023-10-13T13:08:56;14.40;;;3.42;;
7359;SDS011;3720;48.274;7.796;2023-10-13T13:11:30;10.57;;;2.72;;
7359;SDS011;3720;48.274;7.796;2023-10-13T13:14:02;10.77;;;3.20;;
7359;SDS011;3720;48.274;7.796;2023-10-13T13:16:35;8.68;;;2.65;;
7359;SDS011;3720;48.274;7.796;2023-10-13T13:19:09;9.63;;;2.70;;
7359;SDS011;3720;48.274;7.796;2023-10-13T13:21:44;7.70;;;2.47;;
7359;SDS011;3720;48.274;7.796;2023-10-13T13:24:17;7.05;;;2.38;;
7359;SDS011;3720;48.274;7.796;2023-10-13T13:26:49;6.40;;;2.65;;
7359;SDS011;3720;48.274;7.796;2023-10-13T13:29:24;5.00;;;2.65;;
7359;SDS011;3720;48.274;7.796;2023-10-13T13:31:56;8.32;;;2.50;;
7359;SDS011;3720;48.274;7.796;2023-10-13T13:34:30;6.65;;;2.40;;
7359;SDS011;3720;48.274;7.796;2023-10-13T13:37:02;8.77;;;2.40;;
7359;SDS011;3720;48.274;7.796;2023-10-13T13:39:35;10.23;;;2.80;;
7359;SDS011;3720;48.274;7.796;2023-10-13T13:42:13;8.70;;;2.53;;
7359;SDS011;3720;48.274;7.796;2023-10-13T13:44:47;12.20;;;2.83;;
7359;SDS011;3720;48.274;7.796;2023-10-13T13:47:19;9.25;;;2.40;;
7359;SDS011;3720;48.274;7.796;2023-10-13T13:49:52;11.68;;;2.60;;
7359;SDS011;3720;48.274;7.796;2023-10-13T13:52:25;8.48;;;2.50;;
7359;SDS011;3720;48.274;7.796;2023-10-13T13:55:05;6.35;;;2.40;;
7359;SDS011;3720;48.274;7.796;2023-10-13T13:57:37;6.00;;;2.08;;
7359;SDS011;3720;48.274;7.796;2023-10-13T14:00:10;8.15;;;2.60;;
7359;SDS011;3720;48.274;7.796;2023-10-13T14:02:47;4.78;;;2.10;;
7359;SDS011;3720;48.274;7.796;2023-10-13T14:05:19;5.05;;;2.30;;
7359;SDS011;3720;48.274;7.796;2023-10-13T14:07:50;8.45;;;2.28;;
7359;SDS011;3720;48.274;7.796;2023-10-13T14:10:24;6.80;;;2.47;;
7359;SDS011;3720;48.274;7.796;2023-10-13T14:13:25;8.10;;;2.15;;
7359;SDS011;3720;48.274;7.796;2023-10-13T14:16:17;7.80;;;2.08;;
7359;SDS011;3720;48.274;7.796;2023-10-13T14:18:50;7.38;;;2.10;;
7359;SDS011;3720;48.274;7.796;2023-10-13T14:21:23;7.47;;;1.90;;
7359;SDS011;3720;48.274;7.796;2023-10-13T14:23:55;8.68;;;2.00;;
7359;SDS011;3720;48.274;7.796;2023-10-13T14:26:32;9.05;;;1.95;;
7359;SDS011;3720;48.274;7.796;2023-10-13T14:29:05;7.97;;;2.05;;
7359;SDS011;3720;48.274;7.796;2023-10-13T14:31:38;10.93;;;1.92;;
7359;SDS011;3720;48.274;7.796;2023-10-13T14:34:11;7.03;;;2.25;;
7359;SDS011;3720;48.274;7.796;2023-10-13T14:36:43;11.27;;;2.10;;
7359;SDS011;3720;48.274;7.796;2023-10-13T14:39:18;10.52;;;2.28;;
7359;SDS011;3720;48.274;7.796;2023-10-13T14:41:52;9.05;;;2.17;;
7359;SDS011;3720;48.274;7.796;2023-10-13T14:44:24;5.50;;;1.85;;
7359;SDS011;3720;48.274;7.796;2023-10-13T14:46:57;9.00;;;1.90;;
7359;SDS011;3720;48.274;7.796;2023-10-13T14:49:29;6.25;;;2.05;;
7359;SDS011;3720;48.274;7.796;2023-10-13T14:52:01;9.60;;;2.22;;
7359;SDS011;3720;48.274;7.796;2023-10-13T14:54:33;11.93;;;2.20;;
7359;SDS011;3720;48.274;7.796;2023-10-13T14:57:06;8.45;;;1.98;;
7359;SDS011;3720;48.274;7.796;2023-10-13T14:59:38;9.88;;;2.70;;
7359;SDS011;3720;48.274;7.796;2023-10-13T15:02:09;7.63;;;2.20;;
7359;SDS011;3720;48.274;7.796;2023-10-13T15:04:41;9.30;;;2.28;;
7359;SDS011;3720;48.274;7.796;2023-10-13T15:07:13;7.15;;;2.28;;
7359;SDS011;3720;48.274;7.796;2023-10-13T15:09:46;11.00;;;2.10;;
7359;SDS011;3720;48.274;7.796;2023-10-13T15:12:19;7.63;;;2.25;;
7359;SDS011;3720;48.274;7.796;2023-10-13T15:14:51;11.50;;;2.17;;
7359;SDS011;3720;48.274;7.796;2023-10-13T15:17:26;5.55;;;2.00;;
7359;SDS011;3720;48.274;7.796;2023-10-13T15:19:59;5.03;;;2.05;;
7359;SDS011;3720;48.274;7.796;2023-10-13T15:22:31;6.32;;;1.92;;
7359;SDS011;3720;48.274;7.796;2023-10-13T15:25:05;9.07;;;2.10;;
7359;SDS011;3720;48.274;7.796;2023-10-13T15:27:48;6.93;;;2.15;;
7359;SDS011;3720;48.274;7.796;2023-10-13T15:30:25;7.97;;;2.05;;
7359;SDS011;3720;48.274;7.796;2023-10-13T15:33:01;5.80;;;2.10;;
7359;SDS011;3720;48.274;7.796;2023-10-13T15:35:37;7.72;;;2.30;;
7359;SDS011;3720;48.274;7.796;2023-10-13T15:38:12;7.50;;;2.13;;
7359;SDS011;3720;48.274;7.796;2023-10-13T15:40:44;7.05;;;2.38;;
7359;SDS011;3720;48.274;7.796;2023-10-13T15:43:18;8.18;;;2.38;;
7359;SDS011;3720;48.274;7.796;2023-10-13T15:45:49;6.90;;;2.55;;
7359;SDS011;3720;48.274;7.796;2023-10-13T15:48:22;5.40;;;2.55;;
7359;SDS011;3720;48.274;7.796;2023-10-13T15:50:54;5.38;;;2.53;;
7359;SDS011;3720;48.274;7.796;2023-10-13T15:53:26;8.13;;;2.40;;
7359;SDS011;3720;48.274;7.796;2023-10-13T15:55:57;8.50;;;2.70;;
7359;SDS011;3720;48.274;7.796;2023-10-13T15:58:31;4.97;;;2.60;;
7359;SDS011;3720;48.274;7.796;2023-10-13T16:01:02;6.65;;;2.70;;
7359;SDS011;3720;48.274;7.796;2023-10-13T16:03:34;7.93;;;2.80;;
7359;SDS011;3720;48.274;7.796;2023-10-13T16:06:06;5.00;;;2.67;;
7359;SDS011;3720;48.274;7.796;2023-10-13T16:08:40;5.07;;;2.75;;
7359;SDS011;3720;48.274;7.796;2023-10-13T16:11:12;5.85;;;2.60;;
7359;SDS011;3720;48.274;7.796;2023-10-13T16:13:49;5.45;;;2.50;;
7359;SDS011;3720;48.274;7.796;2023-10-13T16:16:22;5.80;;;3.17;;
7359;SDS011;3720;48.274;7.796;2023-10-13T16:18:54;9.10;;;3.17;;
7359;SDS011;3720;48.274;7.796;2023-10-13T16:21:26;7.55;;;2.97;;
7359;SDS011;3720;48.274;7.796;2023-10-13T16:23:59;5.22;;;2.67;;
7359;SDS011;3720;48.274;7.796;2023-10-13T16:26:31;9.05;;;2.70;;
7359;SDS011;3720;48.274;7.796;2023-10-13T16:29:05;8.73;;;2.83;;
7359;SDS011;3720;48.274;7.796;2023-10-13T16:31:37;7.63;;;2.90;;